Time;durP1;ratioP1;P1;durP2;ratioP2;P2;SDS_P1;SDS_P2;PMS_P1;PMS_P2;Temp;Humidity;BMP_temperature;BMP_pressure;BME280_temperature;BME280_humidity;BME280_pressure;Samples;Min_cycle;Max_cycle;Signal;HPM_P1;HPM_P2
2021/12/14 06:01:41;;;;;;;11.00;4.85;;;4.20;99.90;;;;;;5323729;23;20064;-77
2021/12/14 06:04:09;;;;;;;9.02;4.30;;;4.20;99.90;;;;;;4937832;29;20480;-75
2021/12/14 06:06:41;;;;;;;10.77;5.25;;;4.10;99.90;;;;;;4937996;29;20048;-75
2021/12/14 06:09:11;;;;;;;9.98;4.65;;;4.10;99.90;;;;;;4922088;29;20058;-75
2021/12/14 06:11:39;;;;;;;9.20;4.55;;;4.20;99.90;;;;;;4918698;29;20048;-75
2021/12/14 06:14:14;;;;;;;8.15;4.03;;;4.20;99.90;;;;;;4918092;29;20058;-78
2021/12/14 06:16:43;;;;;;;8.20;3.90;;;4.20;99.90;;;;;;4918310;29;20482;-77
2021/12/14 06:19:22;;;;;;;7.25;3.47;;;4.30;99.90;;;;;;4918631;29;20062;-79
2021/12/14 06:21:54;;;;;;;7.00;3.50;;;4.30;99.90;;;;;;4918749;29;20497;-78
2021/12/14 06:24:24;;;;;;;7.00;3.22;;;4.30;99.90;;;;;;4918576;29;20416;-77
2021/12/14 06:26:55;;;;;;;5.78;3.00;;;4.30;99.90;;;;;;4918566;29;20142;-77
2021/12/14 06:29:25;;;;;;;5.93;3.05;;;4.40;99.90;;;;;;4918585;29;20056;-77
2021/12/14 06:31:55;;;;;;;6.40;2.95;;;4.40;99.90;;;;;;4918755;29;20415;-75
2021/12/14 06:34:29;;;;;;;6.03;3.03;;;4.40;99.90;;;;;;4919667;29;20489;-76
2021/12/14 06:38:10;;;;;;;6.13;3.13;;;4.40;99.90;;;;;;4918102;29;20059;-76
2021/12/14 06:40:45;;;;;;;6.07;3.20;;;4.40;99.90;;;;;;4918378;29;20052;-76
2021/12/14 06:43:17;;;;;;;6.78;3.30;;;4.40;99.90;;;;;;4918499;29;20051;-76
2021/12/14 06:45:48;;;;;;;5.90;3.20;;;4.50;99.90;;;;;;4918262;29;20048;-75
2021/12/14 06:48:21;;;;;;;6.28;3.15;;;4.40;99.90;;;;;;4918641;29;20055;-76
2021/12/14 06:50:52;;;;;;;5.90;3.10;;;4.40;99.90;;;;;;4918359;29;20075;-78
2021/12/14 06:53:21;;;;;;;5.70;3.20;;;4.40;99.90;;;;;;4918061;29;20143;-75
2021/12/14 06:55:51;;;;;;;5.85;3.03;;;4.40;99.90;;;;;;4917909;29;20056;-77
2021/12/14 06:58:25;;;;;;;6.00;3.03;;;4.40;99.90;;;;;;4917872;29;20064;-78
2021/12/14 07:01:02;;;;;;;6.80;3.50;;;4.40;99.90;;;;;;4934365;29;20057;-78
2021/12/14 07:03:44;;;;;;;6.10;3.20;;;4.40;99.90;;;;;;4955936;29;20047;-76
2021/12/14 07:06:20;;;;;;;6.68;3.67;;;4.40;99.90;;;;;;4956310;29;20058;-76
2021/12/14 07:08:47;;;;;;;7.43;3.42;;;4.50;99.90;;;;;;4955961;29;20503;-77
2021/12/14 07:11:20;;;;;;;7.60;3.83;;;4.50;99.90;;;;;;4952200;29;20048;-75
2021/12/14 07:13:48;;;;;;;7.30;3.85;;;4.40;99.90;;;;;;4936671;29;20471;-76
2021/12/14 07:16:21;;;;;;;6.90;3.47;;;4.40;99.90;;;;;;4936550;29;20079;-76
2021/12/14 07:18:53;;;;;;;8.40;4.22;;;4.50;99.90;;;;;;4936534;29;20059;-76
2021/12/14 07:21:44;;;;;;;8.13;4.22;;;4.50;99.90;;;;;;4937593;29;20054;-76
2021/12/14 07:24:36;;;;;;;8.90;4.18;;;4.50;99.90;;;;;;4932732;29;20058;-75
2021/12/14 07:27:23;;;;;;;8.30;3.80;;;4.50;99.90;;;;;;4936196;29;20501;-76
2021/12/14 07:29:51;;;;;;;8.70;4.20;;;4.50;99.90;;;;;;4936429;29;20098;-76
2021/12/14 07:32:47;;;;;;;6.93;3.88;;;4.50;99.90;;;;;;4936303;29;20065;-75
2021/12/14 07:35:22;;;;;;;7.43;3.75;;;4.50;99.90;;;;;;4929542;29;20074;-75
2021/12/14 07:37:49;;;;;;;;;;;4.50;99.90;;;;;;4936702;29;20058;-77
2021/12/14 07:40:17;;;;;;;7.85;3.88;;;4.50;99.90;;;;;;4936366;29;19923;-76
2021/12/14 07:42:44;;;;;;;8.13;3.97;;;4.40;99.90;;;;;;4936061;29;20051;-77
2021/12/14 07:45:24;;;;;;;8.10;4.07;;;4.30;99.90;;;;;;4936779;29;20048;-78
2021/12/14 07:47:52;;;;;;;8.32;3.90;;;4.40;99.90;;;;;;4935764;29;20059;-79
2021/12/14 07:50:37;;;;;;;7.55;3.67;;;4.30;99.90;;;;;;4936616;29;20557;-76
2021/12/14 07:53:04;;;;;;;;;;;4.30;99.90;;;;;;4946904;28;20575;-76
2021/12/14 07:55:31;;;;;;;6.65;3.35;;;4.20;99.90;;;;;;4955122;29;19922;-76
2021/12/14 07:57:58;;;;;;;6.78;3.45;;;4.20;99.90;;;;;;4954428;28;20047;-78
2021/12/14 08:00:28;;;;;;;7.10;3.58;;;4.20;99.90;;;;;;4947118;29;20110;-78
2021/12/14 08:02:58;;;;;;;6.57;3.20;;;4.30;99.90;;;;;;4933751;29;20132;-79
2021/12/14 08:05:30;;;;;;;8.23;3.78;;;4.30;99.90;;;;;;4935844;29;20051;-80
2021/12/14 08:08:03;;;;;;;7.55;3.88;;;4.40;99.90;;;;;;4935827;29;20058;-77
2021/12/14 08:10:37;;;;;;;9.00;4.40;;;4.40;99.90;;;;;;4935640;29;20052;-80
2021/12/14 08:13:09;;;;;;;6.65;3.90;;;4.40;99.90;;;;;;4935713;29;20063;-79
2021/12/14 08:15:41;;;;;;;7.32;3.58;;;4.40;99.90;;;;;;4928318;29;20052;-80
2021/12/14 08:18:12;;;;;;;8.32;3.92;;;4.40;99.90;;;;;;4916663;29;20062;-79
2021/12/14 08:20:46;;;;;;;7.07;3.83;;;4.40;99.90;;;;;;4916546;29;20090;-79
2021/12/14 08:23:20;;;;;;;8.25;3.92;;;4.50;99.90;;;;;;4916610;29;20585;-80
2021/12/14 08:25:48;;;;;;;8.88;4.00;;;4.50;99.90;;;;;;4917542;29;20052;-79
2021/12/14 08:28:20;;;;;;;7.93;3.90;;;4.50;99.90;;;;;;4916600;29;20064;-80
2021/12/14 08:30:58;;;;;;;9.13;4.07;;;4.60;99.90;;;;;;4916339;29;20373;-80
2021/12/14 08:33:29;;;;;;;8.13;4.25;;;4.60;99.90;;;;;;4916495;29;20398;-83
2021/12/14 08:36:03;;;;;;;7.70;3.80;;;4.60;99.90;;;;;;4916677;29;20482;-84
2021/12/14 08:38:33;;;;;;;7.43;3.97;;;4.70;99.90;;;;;;4917023;29;20146;-83
2021/12/14 08:41:12;;;;;;;7.10;3.78;;;4.70;99.90;;;;;;4917011;29;20055;-83
2021/12/14 08:43:48;;;;;;;7.85;4.13;;;4.80;99.90;;;;;;4916513;29;20091;-84
2021/12/14 08:46:19;;;;;;;6.95;3.88;;;4.80;99.90;;;;;;4916816;29;20056;-81
2021/12/14 08:48:50;;;;;;;8.10;4.35;;;4.90;99.90;;;;;;4916493;29;20048;-82
2021/12/14 08:51:23;;;;;;;7.55;4.03;;;4.90;99.90;;;;;;4916888;29;20544;-80
2021/12/14 08:53:57;;;;;;;7.55;3.97;;;4.90;99.90;;;;;;4916355;29;20489;-87
2021/12/14 08:56:28;;;;;;;8.73;3.55;;;5.00;99.90;;;;;;4915281;29;20069;-80
2021/12/14 08:58:55;;;;;;;7.07;3.70;;;5.00;99.90;;;;;;4913925;29;20493;-80
2021/12/14 09:01:27;;;;;;;6.57;3.47;;;5.00;99.90;;;;;;4920746;29;20138;-80
2021/12/14 09:03:59;;;;;;;6.82;3.45;;;5.00;99.90;;;;;;4932410;29;20055;-80
2021/12/14 09:06:33;;;;;;;6.65;3.33;;;5.00;99.90;;;;;;4931724;29;20062;-80
2021/12/14 09:09:05;;;;;;;6.27;3.20;;;5.10;99.90;;;;;;4931841;29;20055;-79
2021/12/14 09:11:36;;;;;;;5.93;3.22;;;5.10;99.90;;;;;;4930815;29;20062;-79
2021/12/14 09:14:06;;;;;;;11.13;5.45;;;5.20;99.90;;;;;;4933475;29;20051;-81
2021/12/14 09:16:35;;;;;;;9.23;4.43;;;5.30;99.90;;;;;;4934047;29;20138;-79
2021/12/14 09:19:10;;;;;;;6.45;3.50;;;5.40;99.90;;;;;;4931341;29;20513;-80
2021/12/14 09:21:42;;;;;;;5.93;3.05;;;5.40;99.90;;;;;;4932115;29;20086;-79
2021/12/14 09:24:15;;;;;;;6.28;3.55;;;5.50;99.90;;;;;;4931899;29;20057;-83
2021/12/14 09:26:47;;;;;;;6.07;3.10;;;5.60;99.90;;;;;;4932022;29;20078;-79
2021/12/14 09:29:17;;;;;;;8.90;3.70;;;5.60;99.90;;;;;;4932822;29;20054;-82
2021/12/14 09:31:49;;;;;;;6.75;3.40;;;5.60;99.90;;;;;;4931893;29;20065;-80
2021/12/14 09:34:22;;;;;;;6.35;3.63;;;5.70;99.90;;;;;;4931759;29;20584;-79
2021/12/14 09:36:52;;;;;;;6.60;3.72;;;5.70;99.90;;;;;;4932945;29;20054;-79
2021/12/14 09:39:25;;;;;;;7.60;3.80;;;5.80;99.90;;;;;;4932789;29;20051;-80
2021/12/14 09:41:53;;;;;;;7.38;3.88;;;6.00;99.90;;;;;;4939604;29;20044;-80
2021/12/14 09:44:25;;;;;;;6.22;3.20;;;6.00;99.90;;;;;;4934763;29;20449;-77
2021/12/14 09:46:54;;;;;;;6.63;3.08;;;6.10;99.90;;;;;;4937267;29;20130;-80
2021/12/14 09:49:22;;;;;;;6.28;3.50;;;6.00;99.90;;;;;;4948812;28;20587;-79
2021/12/14 09:51:56;;;;;;;6.05;3.13;;;6.00;99.90;;;;;;4950862;28;20496;-79
2021/12/14 09:54:29;;;;;;;5.88;3.15;;;6.10;99.90;;;;;;4950829;29;20058;-79
2021/12/14 09:57:01;;;;;;;5.80;2.90;;;6.10;99.90;;;;;;4950297;28;20058;-80
2021/12/14 09:59:28;;;;;;;5.22;2.83;;;6.20;99.90;;;;;;4950771;28;20437;-80
2021/12/14 10:02:00;;;;;;;6.22;3.47;;;6.20;99.90;;;;;;4950555;29;20186;-81
2021/12/14 10:04:35;;;;;;;6.00;3.47;;;6.20;99.90;;;;;;4949132;29;20521;-79
2021/12/14 10:07:05;;;;;;;5.38;3.30;;;6.20;99.90;;;;;;4940666;29;20048;-80
2021/12/14 10:09:42;;;;;;;5.97;3.30;;;6.20;99.90;;;;;;4936905;28;20465;-80
2021/12/14 10:12:19;;;;;;;5.18;3.17;;;6.20;99.90;;;;;;4943558;28;20489;-77
2021/12/14 10:14:50;;;;;;;5.60;3.22;;;6.30;99.90;;;;;;4938882;29;20043;-78
2021/12/14 10:17:23;;;;;;;5.78;3.15;;;6.30;99.90;;;;;;4949028;29;20086;-80
2021/12/14 10:19:51;;;;;;;6.75;3.25;;;6.30;99.90;;;;;;4945969;28;20146;-79
2021/12/14 10:22:26;;;;;;;5.35;3.22;;;6.30;99.90;;;;;;4948336;28;20051;-78
2021/12/14 10:24:55;;;;;;;5.18;2.92;;;6.40;99.90;;;;;;4954380;28;20404;-80
2021/12/14 10:27:27;;;;;;;5.25;2.75;;;6.40;99.90;;;;;;4953833;29;20058;-78
2021/12/14 10:29:56;;;;;;;6.07;3.50;;;6.50;99.90;;;;;;4953477;29;20126;-81
2021/12/14 10:32:28;;;;;;;5.40;3.22;;;6.50;99.90;;;;;;4953519;28;20057;-79
2021/12/14 10:35:01;;;;;;;5.40;3.20;;;6.50;99.90;;;;;;4953983;28;20110;-79
2021/12/14 10:37:46;;;;;;;5.70;3.40;;;6.50;99.90;;;;;;4950009;29;20047;-79
2021/12/14 10:45:46;;;;;;;5.83;3.43;;;6.70;99.90;;;;;;4938354;29;20051;-81
2021/12/14 10:48:13;;;;;;;6.32;3.45;;;6.80;99.90;;;;;;4953655;28;20051;-82
2021/12/14 10:50:43;;;;;;;6.32;3.70;;;7.00;99.90;;;;;;4953250;29;20047;-79
2021/12/14 10:53:12;;;;;;;6.63;3.53;;;7.10;99.90;;;;;;4936230;28;20043;-78
2021/12/14 10:55:47;;;;;;;8.57;4.50;;;7.20;99.90;;;;;;4952923;29;20854;-78
2021/12/14 10:58:20;;;;;;;9.07;4.30;;;7.20;99.90;;;;;;4953334;29;20044;-78
2021/12/14 11:00:52;;;;;;;7.53;4.25;;;7.30;99.90;;;;;;4953578;29;20493;-78
2021/12/14 11:03:23;;;;;;;7.22;4.10;;;7.40;99.90;;;;;;4950082;29;20047;-77
2021/12/14 11:05:57;;;;;;;6.85;4.03;;;7.50;99.90;;;;;;4953867;28;20086;-77
2021/12/14 11:08:40;;;;;;;7.22;4.13;;;7.50;99.90;;;;;;4952401;28;20055;-79
2021/12/14 11:11:12;;;;;;;6.80;3.97;;;7.60;99.90;;;;;;4944624;28;20057;-79
2021/12/14 11:13:44;;;;;;;6.32;3.70;;;7.60;99.90;;;;;;4953466;28;20425;-78
2021/12/14 11:16:20;;;;;;;5.95;3.55;;;7.70;99.90;;;;;;4953501;28;20069;-79
2021/12/14 11:18:49;;;;;;;5.60;3.45;;;7.80;99.90;;;;;;4952921;28;20401;-81
2021/12/14 11:21:23;;;;;;;7.80;3.85;;;7.90;99.90;;;;;;4950944;28;20058;-80
2021/12/14 11:23:54;;;;;;;9.02;3.78;;;7.90;99.90;;;;;;4952981;28;20552;-79
2021/12/14 11:26:27;;;;;;;6.68;4.00;;;8.00;99.90;;;;;;4952970;28;20060;-79
2021/12/14 11:28:58;;;;;;;6.10;3.80;;;8.10;99.90;;;;;;4953134;29;20055;-81
2021/12/14 11:31:32;;;;;;;8.95;5.13;;;8.20;99.90;;;;;;4944906;29;20568;-81
2021/12/14 11:34:03;;;;;;;10.73;5.90;;;8.30;99.90;;;;;;4951800;28;20058;-80
2021/12/14 11:36:34;;;;;;;11.73;6.60;;;8.40;99.90;;;;;;4952697;29;20106;-81
2021/12/14 11:39:11;;;;;;;14.48;8.15;;;8.40;99.90;;;;;;4952977;28;20449;-79
2021/12/14 11:41:45;;;;;;;11.43;5.43;;;8.40;99.90;;;;;;4952425;28;20047;-79
2021/12/14 11:44:21;;;;;;;7.60;4.27;;;8.50;99.90;;;;;;4952511;28;20052;-80
2021/12/14 11:47:01;;;;;;;7.78;4.28;;;8.50;99.90;;;;;;4944163;29;20307;-79
2021/12/14 11:49:46;;;;;;;7.80;4.30;;;8.50;99.90;;;;;;4933207;29;20093;-80
2021/12/14 11:52:33;;;;;;;6.88;4.20;;;8.50;99.90;;;;;;4933526;29;20066;-79
2021/12/14 11:55:24;;;;;;;7.82;4.10;;;8.50;99.90;;;;;;4933182;29;20051;-79
2021/12/14 11:58:17;;;;;;;8.57;4.10;;;8.60;99.90;;;;;;4933057;29;20062;-80
2021/12/14 12:00:51;;;;;;;6.63;4.00;;;8.70;99.90;;;;;;4932452;29;20102;-81
2021/12/14 12:03:23;;;;;;;8.02;3.90;;;8.80;99.90;;;;;;4932770;29;20055;-80
2021/12/14 12:06:02;;;;;;;6.40;4.13;;;8.90;99.90;;;;;;4933203;29;20051;-80
2021/12/14 12:11:21;;;;;;;6.35;3.65;;;9.10;99.90;;;;;;4934004;29;20143;-79
2021/12/14 12:13:49;;;;;;;7.85;4.03;;;9.10;99.90;;;;;;4933221;28;20058;-81
2021/12/14 12:16:20;;;;;;;6.25;3.60;;;9.20;99.90;;;;;;4934817;29;20493;-78
2021/12/14 12:19:13;;;;;;;6.88;3.97;;;9.30;99.90;;;;;;4932962;29;20043;-81
2021/12/14 12:21:41;;;;;;;8.23;3.70;;;9.40;99.90;;;;;;4932931;29;20051;-79
2021/12/14 12:24:42;;;;;;;7.97;3.50;;;9.60;99.90;;;;;;4940295;29;20054;-81
2021/12/14 12:27:24;;;;;;;6.72;3.67;;;9.70;99.90;;;;;;4951482;28;20134;-76
2021/12/14 12:30:12;;;;;;;5.82;3.92;;;9.80;99.40;;;;;;4950639;29;20063;-80
2021/12/14 12:32:40;;;;;;;5.68;3.47;;;10.00;99.40;;;;;;4944304;29;20079;-80
2021/12/14 12:35:26;;;;;;;7.10;3.78;;;10.10;99.30;;;;;;4944968;28;20056;-81
2021/12/14 12:37:55;;;;;;;7.28;3.53;;;10.30;99.00;;;;;;4932338;29;20051;-78
2021/12/14 12:40:46;;;;;;;7.05;3.70;;;10.50;99.00;;;;;;4931991;29;20055;-80
2021/12/14 12:43:30;;;;;;;5.38;3.22;;;10.70;98.50;;;;;;4932926;29;20082;-78
2021/12/14 12:46:16;;;;;;;5.13;3.28;;;11.00;97.70;;;;;;4932891;29;20424;-79
2021/12/14 12:49:03;;;;;;;6.78;3.55;;;11.10;97.00;;;;;;4923829;29;20504;-78
2021/12/14 12:52:12;;;;;;;5.45;3.20;;;11.20;96.80;;;;;;4932528;29;20143;-79
2021/12/14 12:54:51;;;;;;;6.20;3.25;;;11.50;96.70;;;;;;4927159;29;20056;-80
2021/12/14 12:57:36;;;;;;;5.80;3.50;;;11.80;96.10;;;;;;4941165;29;20482;-80
2021/12/14 13:00:22;;;;;;;5.72;3.28;;;12.00;95.10;;;;;;4952129;28;20055;-77
2021/12/14 13:02:58;;;;;;;6.07;3.40;;;12.50;94.90;;;;;;4943871;28;20086;-79
2021/12/14 13:05:34;;;;;;;5.18;3.30;;;12.80;93.50;;;;;;4952159;28;20047;-81
2021/12/14 13:08:17;;;;;;;5.93;3.47;;;13.10;92.50;;;;;;4952532;29;20065;-78
2021/12/14 13:10:49;;;;;;;4.78;3.08;;;13.50;91.90;;;;;;4952650;28;20485;-80
2021/12/14 13:13:19;;;;;;;4.88;2.97;;;13.70;91.30;;;;;;4952825;28;20131;-79
2021/12/14 13:16:11;;;;;;;4.55;2.72;;;14.20;90.20;;;;;;4952362;28;20043;-81
2021/12/14 13:18:46;;;;;;;5.07;2.97;;;14.70;87.50;;;;;;4950428;28;20050;-80
2021/12/14 13:21:34;;;;;;;5.40;3.30;;;15.10;83.70;;;;;;4947183;29;20052;-80
2021/12/14 13:24:08;;;;;;;5.65;3.00;;;15.20;81.00;;;;;;4947637;28;20054;-79
2021/12/14 13:26:44;;;;;;;6.23;3.23;;;15.20;80.00;;;;;;4949475;29;20044;-79
2021/12/14 13:29:33;;;;;;;5.07;2.90;;;15.10;80.30;;;;;;4933525;29;20043;-78
2021/12/14 13:32:09;;;;;;;5.03;3.03;;;14.80;80.90;;;;;;4933066;29;20066;-79
2021/12/14 13:34:41;;;;;;;6.32;3.33;;;14.60;81.00;;;;;;4932568;29;20504;-81
2021/12/14 13:37:11;;;;;;;5.82;3.00;;;14.50;81.30;;;;;;4931795;29;20104;-79
2021/12/14 13:39:40;;;;;;;5.30;3.05;;;14.30;82.10;;;;;;4931594;29;20135;-80
2021/12/14 13:42:46;;;;;;;5.15;3.20;;;14.20;83.10;;;;;;4935366;29;20093;-80
2021/12/14 13:45:19;;;;;;;5.20;3.15;;;14.30;83.30;;;;;;4931161;29;20401;-79
2021/12/14 13:47:49;;;;;;;8.35;3.45;;;14.40;82.20;;;;;;4941254;29;20047;-80
2021/12/14 13:50:22;;;;;;;6.85;3.60;;;14.40;81.80;;;;;;4951025;28;20057;-79
2021/12/14 13:52:49;;;;;;;6.82;4.03;;;14.20;82.10;;;;;;4950866;29;20134;-81
2021/12/14 13:55:29;;;;;;;5.90;3.63;;;14.10;82.40;;;;;;4950730;28;20061;-81
2021/12/14 13:58:06;;;;;;;6.82;3.80;;;14.10;82.40;;;;;;4953291;28;20063;-81
2021/12/14 14:00:40;;;;;;;6.63;3.65;;;14.10;82.30;;;;;;4954155;28;20123;-80
2021/12/14 14:03:09;;;;;;;5.85;3.45;;;13.90;82.60;;;;;;4954548;29;20057;-79
2021/12/14 14:05:37;;;;;;;5.97;3.63;;;13.70;83.00;;;;;;4952646;28;20051;-82
2021/12/14 14:08:11;;;;;;;7.03;3.60;;;13.60;83.90;;;;;;4953864;28;20047;-80
2021/12/14 14:10:39;;;;;;;6.45;3.83;;;13.40;84.70;;;;;;4953332;28;20464;-81
2021/12/14 14:13:10;;;;;;;6.65;3.55;;;13.10;85.60;;;;;;4954074;28;20057;-78
2021/12/14 14:15:41;;;;;;;6.53;3.60;;;13.00;86.80;;;;;;4954197;29;20131;-77
2021/12/14 14:18:14;;;;;;;6.60;3.67;;;12.80;87.70;;;;;;4954268;29;20143;-82
2021/12/14 14:20:50;;;;;;;6.60;3.70;;;12.70;89.00;;;;;;4954114;28;20405;-80
2021/12/14 14:23:24;;;;;;;6.93;3.83;;;12.50;90.00;;;;;;4953416;29;20062;-79
2021/12/14 14:26:00;;;;;;;6.43;3.72;;;12.40;90.40;;;;;;4954053;29;20059;-81
2021/12/14 14:28:40;;;;;;;6.93;3.83;;;12.20;90.90;;;;;;4954129;29;20409;-80
2021/12/14 14:31:10;;;;;;;9.40;4.20;;;12.00;91.40;;;;;;4952413;28;20403;-79
2021/12/14 14:33:51;;;;;;;8.05;4.03;;;11.70;91.90;;;;;;4953930;29;20111;-79
2021/12/14 14:36:34;;;;;;;7.85;4.38;;;11.50;92.70;;;;;;4954216;28;20523;-79
2021/12/14 14:39:11;;;;;;;10.15;4.50;;;11.20;93.30;;;;;;4954666;28;20087;-78
2021/12/14 14:41:47;;;;;;;7.38;4.47;;;11.00;93.90;;;;;;4954110;28;20115;-80
2021/12/14 14:44:25;;;;;;;8.65;4.50;;;10.90;94.50;;;;;;4953317;28;20557;-78
2021/12/14 14:47:05;;;;;;;7.75;4.32;;;10.70;95.10;;;;;;4953628;28;20074;-78
2021/12/14 14:49:59;;;;;;;6.85;4.43;;;10.50;95.60;;;;;;4941700;29;20066;-80
2021/12/14 14:52:31;;;;;;;8.60;4.43;;;10.40;96.10;;;;;;4934202;29;20054;-79
2021/12/14 14:55:03;;;;;;;14.35;8.55;;;10.30;96.50;;;;;;4934038;29;20083;-79
2021/12/14 14:57:47;;;;;;;12.07;7.20;;;10.20;96.80;;;;;;4934146;29;20564;-81
2021/12/14 15:00:37;;;;;;;10.63;6.20;;;10.10;97.00;;;;;;4934063;29;20065;-79
2021/12/14 15:03:13;;;;;;;11.20;5.78;;;10.00;97.30;;;;;;4933414;29;20093;-81
2021/12/14 15:05:51;;;;;;;10.30;5.95;;;9.90;97.50;;;;;;4934302;29;20058;-80
2021/12/14 15:08:28;;;;;;;8.93;5.60;;;9.70;97.80;;;;;;4932820;29;20056;-78
2021/12/14 15:11:01;;;;;;;8.90;5.60;;;9.60;98.20;;;;;;4934007;29;20079;-78
2021/12/14 15:13:46;;;;;;;9.63;5.53;;;9.40;98.40;;;;;;4943728;29;20047;-78
2021/12/14 15:16:42;;;;;;;9.52;5.82;;;9.40;98.90;;;;;;4952491;29;20053;-80
2021/12/14 15:19:21;;;;;;;8.68;5.47;;;9.20;99.30;;;;;;4944784;28;20062;-80
2021/12/14 15:22:07;;;;;;;12.05;6.30;;;9.20;99.50;;;;;;4952607;28;20081;-80
2021/12/14 15:25:04;;;;;;;8.93;5.50;;;9.10;99.60;;;;;;4953044;28;20062;-79
2021/12/14 15:27:58;;;;;;;10.25;6.13;;;9.00;99.90;;;;;;4948471;29;20516;-80
2021/12/14 15:30:52;;;;;;;10.10;5.55;;;8.90;99.90;;;;;;4946962;29;20489;-80
2021/12/14 15:33:27;;;;;;;9.15;5.53;;;8.90;99.90;;;;;;4951847;28;20051;-80
2021/12/14 15:36:09;;;;;;;11.05;5.63;;;8.80;99.90;;;;;;4951744;29;20070;-81
2021/12/14 15:38:42;;;;;;;9.02;5.53;;;8.70;99.90;;;;;;4951882;28;20166;-77
2021/12/14 15:41:27;;;;;;;8.18;5.13;;;8.70;99.90;;;;;;4952119;28;20051;-81
2021/12/14 15:44:05;;;;;;;9.85;5.45;;;8.60;99.90;;;;;;4951671;29;20051;-80
2021/12/14 15:46:37;;;;;;;9.15;5.40;;;8.60;99.90;;;;;;4951842;29;20147;-78
2021/12/14 15:49:20;;;;;;;11.43;5.75;;;8.60;99.90;;;;;;4951490;28;20412;-78
2021/12/14 15:51:54;;;;;;;8.57;5.70;;;8.60;99.90;;;;;;4946115;28;20150;-78
2021/12/14 15:54:32;;;;;;;9.85;5.63;;;8.50;99.90;;;;;;4942793;29;20142;-79
2021/12/14 15:57:07;;;;;;;10.55;5.88;;;8.50;99.90;;;;;;4939866;29;20055;-78
2021/12/14 15:59:36;;;;;;;9.85;5.38;;;8.40;99.90;;;;;;4938848;29;20413;-78
2021/12/14 16:02:07;;;;;;;10.13;6.20;;;8.40;99.90;;;;;;4940574;29;20067;-80
2021/12/14 16:04:42;;;;;;;11.68;5.93;;;8.40;99.90;;;;;;4935556;29;20039;-79
2021/12/14 16:07:13;;;;;;;9.10;5.80;;;8.30;99.90;;;;;;4936904;29;20087;-79
2021/12/14 16:09:47;;;;;;;10.13;5.97;;;8.30;99.90;;;;;;4933637;29;20051;-79
2021/12/14 16:15:13;;;;;;;13.15;7.40;;;8.20;99.90;;;;;;4949512;29;20183;-81
2021/12/14 16:17:46;;;;;;;12.23;7.25;;;8.20;99.90;;;;;;4936529;29;20039;-79
2021/12/14 16:20:21;;;;;;;13.82;8.32;;;8.20;99.90;;;;;;4941813;28;20906;-79
2021/12/14 16:22:49;;;;;;;14.57;8.05;;;8.20;99.90;;;;;;4943731;29;20047;-79
2021/12/14 16:25:29;;;;;;;13.52;8.23;;;8.10;99.90;;;;;;4935943;29;20505;-81
2021/12/14 16:27:59;;;;;;;15.73;9.32;;;8.10;99.90;;;;;;4931742;29;20055;-81
2021/12/14 16:30:34;;;;;;;16.35;9.50;;;8.10;99.90;;;;;;4945768;29;20054;-81
2021/12/14 16:33:07;;;;;;;16.85;9.93;;;8.00;99.90;;;;;;4940999;29;20062;-80
2021/12/14 16:35:38;;;;;;;17.33;9.50;;;8.00;99.90;;;;;;4939086;29;20054;-80
2021/12/14 16:38:10;;;;;;;16.77;9.20;;;8.00;99.90;;;;;;4940152;29;20094;-80
2021/12/14 16:40:39;;;;;;;19.58;10.52;;;7.90;99.90;;;;;;4942763;29;20126;-79
2021/12/14 16:43:15;;;;;;;17.48;10.20;;;8.00;99.90;;;;;;4942213;28;20494;-79
2021/12/14 16:45:42;;;;;;;17.95;9.85;;;7.90;99.90;;;;;;4936384;29;20051;-79
2021/12/14 16:48:10;;;;;;;17.38;9.45;;;7.90;99.90;;;;;;4938795;29;20100;-78
2021/12/14 16:50:37;;;;;;;17.27;9.73;;;7.90;99.90;;;;;;4950503;28;20134;-78
2021/12/14 16:53:06;;;;;;;15.02;9.35;;;7.80;99.90;;;;;;4936262;29;20134;-77
2021/12/14 16:55:40;;;;;;;14.63;8.48;;;7.80;99.90;;;;;;4930992;29;20052;-78
2021/12/14 16:58:12;;;;;;;15.27;8.88;;;7.80;99.90;;;;;;4931297;29;20053;-77
2021/12/14 17:00:43;;;;;;;15.27;8.27;;;7.80;99.90;;;;;;4930921;29;20055;-78
2021/12/14 17:03:11;;;;;;;14.98;8.55;;;7.80;99.90;;;;;;4939333;29;20047;-78
2021/12/14 17:05:42;;;;;;;14.57;8.35;;;7.80;99.90;;;;;;4948955;29;20051;-78
2021/12/14 17:08:13;;;;;;;12.93;8.30;;;7.70;99.90;;;;;;4950200;28;20469;-79
2021/12/14 17:10:46;;;;;;;15.32;8.82;;;7.70;99.90;;;;;;4948563;29;20386;-77
2021/12/14 17:13:18;;;;;;;14.93;8.50;;;7.70;99.90;;;;;;4941093;29;20416;-78
2021/12/14 17:15:49;;;;;;;18.30;10.25;;;7.70;99.90;;;;;;4946028;28;20059;-76
2021/12/14 17:18:33;;;;;;;15.07;9.73;;;7.70;99.90;;;;;;4931493;29;20477;-77
2021/12/14 17:21:02;;;;;;;;;;;7.70;99.90;;;;;;4931566;29;20586;-76
2021/12/14 17:23:35;;;;;;;17.13;9.73;;;7.70;99.90;;;;;;4931260;29;19922;-78
2021/12/14 17:26:09;;;;;;;15.75;9.93;;;7.60;99.90;;;;;;4940602;28;20039;-78
2021/12/14 17:28:41;;;;;;;16.40;9.27;;;7.60;99.90;;;;;;4946758;28;20122;-79
2021/12/14 17:31:13;;;;;;;14.32;8.45;;;7.60;99.90;;;;;;4943074;29;20428;-75
2021/12/14 17:33:42;;;;;;;15.18;8.52;;;7.60;99.90;;;;;;4947839;28;20444;-76
2021/12/14 17:36:13;;;;;;;13.95;7.95;;;7.60;99.90;;;;;;4937474;29;20047;-78
2021/12/14 17:38:42;;;;;;;13.80;7.93;;;7.50;99.90;;;;;;4934589;29;20101;-78
2021/12/14 17:41:11;;;;;;;13.30;7.80;;;7.50;99.90;;;;;;4938366;29;20059;-77
2021/12/14 17:43:40;;;;;;;13.75;7.75;;;7.50;99.90;;;;;;4937426;29;20043;-80
2021/12/14 17:46:07;;;;;;;12.93;7.80;;;7.50;99.90;;;;;;4937613;29;20142;-78
2021/12/14 17:48:36;;;;;;;13.73;8.02;;;7.50;99.90;;;;;;4942085;29;20050;-78
2021/12/14 17:51:10;;;;;;;14.13;8.30;;;7.50;99.90;;;;;;4946832;29;20059;-77
2021/12/14 17:53:38;;;;;;;14.10;8.05;;;7.50;99.90;;;;;;4934023;29;20048;-79
2021/12/14 17:56:09;;;;;;;14.63;8.63;;;7.50;99.90;;;;;;4941191;28;20048;-79
2021/12/14 17:58:41;;;;;;;14.65;7.93;;;7.40;99.90;;;;;;4939266;29;20051;-79
2021/12/14 18:01:13;;;;;;;13.77;8.18;;;7.50;99.90;;;;;;4946886;28;21043;-79
2021/12/14 18:03:44;;;;;;;13.25;7.63;;;7.50;99.90;;;;;;4941930;29;20052;-80
2021/12/14 18:06:15;;;;;;;12.10;7.60;;;7.50;99.90;;;;;;4947897;29;20483;-79
2021/12/14 18:08:47;;;;;;;13.68;8.18;;;7.50;99.90;;;;;;4951282;28;20146;-77
2021/12/14 18:11:19;;;;;;;14.63;8.80;;;7.50;99.90;;;;;;4934777;29;20908;-78
2021/12/14 18:13:58;;;;;;;14.63;8.57;;;7.50;99.90;;;;;;4939637;29;20070;-81
2021/12/14 18:16:36;;;;;;;14.98;7.80;;;7.50;99.90;;;;;;4936025;29;20051;-78
2021/12/14 18:19:05;;;;;;;12.63;7.32;;;7.50;99.90;;;;;;4945490;29;20408;-81
2021/12/14 18:21:38;;;;;;;13.05;7.72;;;7.50;99.90;;;;;;4941815;29;20047;-78
2021/12/14 18:24:10;;;;;;;14.18;7.93;;;7.50;99.90;;;;;;4946670;28;20069;-79
2021/12/14 18:26:42;;;;;;;12.80;7.15;;;7.50;99.90;;;;;;4941570;29;20046;-80
2021/12/14 18:29:16;;;;;;;12.07;7.00;;;7.50;99.90;;;;;;4939034;29;20055;-81
2021/12/14 18:31:45;;;;;;;12.20;7.43;;;7.50;99.90;;;;;;4944395;28;20045;-76
2021/12/14 18:34:16;;;;;;;14.38;7.85;;;7.60;99.90;;;;;;4939488;29;20048;-76
2021/12/14 18:36:49;;;;;;;12.00;7.53;;;7.60;99.90;;;;;;4937040;29;20054;-76
2021/12/14 18:39:21;;;;;;;13.30;7.25;;;7.60;99.90;;;;;;4933382;29;20108;-76
2021/12/14 18:42:00;;;;;;;12.90;7.32;;;7.60;99.90;;;;;;4933591;29;20150;-79
2021/12/14 18:44:29;;;;;;;13.55;7.78;;;7.60;99.90;;;;;;4933560;29;20051;-78
2021/12/14 18:47:14;;;;;;;14.80;7.80;;;7.60;99.90;;;;;;4935080;29;20051;-75
2021/12/14 18:49:45;;;;;;;14.13;7.95;;;7.60;99.90;;;;;;4941643;29;20047;-77
2021/12/14 18:52:17;;;;;;;11.80;7.47;;;7.60;99.90;;;;;;4935510;29;20098;-77
2021/12/14 18:54:49;;;;;;;13.23;7.65;;;7.60;99.90;;;;;;4934126;29;20075;-80
2021/12/14 18:57:19;;;;;;;11.63;7.00;;;7.70;99.90;;;;;;4943462;28;20043;-80
2021/12/14 18:59:58;;;;;;;13.18;7.50;;;7.60;99.90;;;;;;4941008;29;20477;-76
2021/12/14 19:02:29;;;;;;;12.40;7.32;;;7.60;99.90;;;;;;4943296;29;20061;-76
2021/12/14 19:05:00;;;;;;;12.27;7.80;;;7.60;99.90;;;;;;4941244;28;20062;-78
2021/12/14 19:07:31;;;;;;;13.88;8.13;;;7.60;99.90;;;;;;4940742;28;20449;-78
2021/12/14 19:09:59;;;;;;;15.88;8.73;;;7.60;99.90;;;;;;4940151;29;20051;-75
2021/12/14 19:12:30;;;;;;;15.35;9.43;;;7.60;99.90;;;;;;4932154;29;20058;-78
2021/12/14 19:15:11;;;;;;;18.77;9.93;;;7.60;99.90;;;;;;4933338;29;20070;-79
2021/12/14 19:17:41;;;;;;;18.48;9.90;;;7.60;99.90;;;;;;4920046;29;20075;-78
2021/12/14 19:20:10;;;;;;;17.08;9.50;;;7.70;99.90;;;;;;4932368;29;20050;-76
2021/12/14 19:22:49;;;;;;;17.70;10.45;;;7.60;99.90;;;;;;4939005;29;20494;-79
2021/12/14 19:25:21;;;;;;;18.83;9.75;;;7.60;99.90;;;;;;4936902;29;20058;-80
2021/12/14 19:27:50;;;;;;;17.85;10.07;;;7.70;99.90;;;;;;4937482;29;20512;-79
2021/12/14 19:30:23;;;;;;;18.10;10.50;;;7.70;99.90;;;;;;4932512;29;20079;-80
2021/12/14 19:32:55;;;;;;;18.15;10.48;;;7.60;99.90;;;;;;4942497;28;20051;-81
2021/12/14 19:35:26;;;;;;;17.60;10.13;;;7.60;99.90;;;;;;4933956;29;20054;-79
2021/12/14 19:37:56;;;;;;;15.98;9.10;;;7.60;99.90;;;;;;4931888;29;20044;-80
2021/12/14 19:40:29;;;;;;;16.67;9.82;;;7.60;99.90;;;;;;4931930;29;20767;-76
2021/12/14 19:43:02;;;;;;;18.25;10.30;;;7.60;99.90;;;;;;4937916;29;20047;-77